createdAt,value
2022-11-20T00:01:54.187Z,15.55
2022-11-20T00:04:22.513Z,14.23
2022-11-20T00:06:50.983Z,15.00
2022-11-20T00:09:20.590Z,16.20
2022-11-20T00:11:49.507Z,15.45
2022-11-20T00:14:18.206Z,14.32
2022-11-20T00:16:48.217Z,15.95
2022-11-20T00:19:19.401Z,15.30
2022-11-20T00:21:52.562Z,14.70
2022-11-20T00:24:20.780Z,15.85
2022-11-20T00:26:49.328Z,15.35
2022-11-20T00:29:20.799Z,15.60
2022-11-20T00:31:49.487Z,15.70
2022-11-20T00:34:19.834Z,16.27
2022-11-20T00:36:50.816Z,16.48
2022-11-20T00:39:19.692Z,15.23
2022-11-20T00:41:48.018Z,15.80
2022-11-20T00:44:16.466Z,16.98
2022-11-20T00:46:44.461Z,16.80
2022-11-20T00:49:12.950Z,16.75
2022-11-20T00:51:42.860Z,16.27
2022-11-20T00:54:11.109Z,17.05
2022-11-20T00:56:41.166Z,16.63
2022-11-20T00:59:11.412Z,17.77
2022-11-20T01:01:40.080Z,17.90
2022-11-20T01:04:08.669Z,17.27
2022-11-20T01:06:39.583Z,20.25
2022-11-20T01:09:13.947Z,18.80
2022-11-20T01:11:45.772Z,17.83
2022-11-20T01:14:17.801Z,19.40
2022-11-20T01:19:20.411Z,19.70
2022-11-20T01:21:52.969Z,20.10
2022-11-20T01:24:25.287Z,22.40
2022-11-20T01:26:54.504Z,23.02
2022-11-20T01:29:24.740Z,22.25
2022-11-20T01:31:53.840Z,24.88
2022-11-20T01:34:23.242Z,23.70
2022-11-20T01:36:52.378Z,25.55
2022-11-20T01:39:25.743Z,23.35
2022-11-20T01:42:13.805Z,25.67
2022-11-20T01:44:53.470Z,26.33
2022-11-20T01:47:26.213Z,24.55
2022-11-20T01:49:58.839Z,26.20
2022-11-20T01:52:31.614Z,25.58
2022-11-20T01:55:05.471Z,26.25
2022-11-20T01:57:36.132Z,26.23
2022-11-20T02:00:10.762Z,27.27
2022-11-20T02:02:41.443Z,26.90
2022-11-20T02:05:17.329Z,26.17
2022-11-20T02:07:48.071Z,25.77
2022-11-20T02:10:18.251Z,27.48
2022-11-20T02:13:03.881Z,25.83
2022-11-20T02:15:32.862Z,26.00
2022-11-20T02:18:01.559Z,26.90
2022-11-20T02:20:30.010Z,26.92
2022-11-20T02:23:03.930Z,26.88
2022-11-20T02:25:38.573Z,26.42
2022-11-20T02:28:07.940Z,27.52
2022-11-20T02:30:37.568Z,27.30
2022-11-20T02:33:05.903Z,27.25
2022-11-20T02:35:47.250Z,27.77
2022-11-20T02:38:16.496Z,26.42
2022-11-20T02:40:54.076Z,27.23
2022-11-20T02:43:23.949Z,27.80
2022-11-20T02:45:55.540Z,27.60
2022-11-20T02:48:25.316Z,28.33
2022-11-20T02:50:53.866Z,27.45
2022-11-20T02:53:24.945Z,27.88
2022-11-20T02:56:00.677Z,27.37
2022-11-20T02:58:29.069Z,27.88
2022-11-20T03:00:57.438Z,27.85
2022-11-20T03:03:25.807Z,26.55
2022-11-20T03:05:54.517Z,27.92
2022-11-20T03:08:23.344Z,26.25
2022-11-20T03:10:51.666Z,26.25
2022-11-20T03:13:21.913Z,26.63
2022-11-20T03:15:50.348Z,26.92
2022-11-20T03:18:18.738Z,25.83
2022-11-20T03:20:47.253Z,24.10
2022-11-20T03:23:15.810Z,25.30
2022-11-20T03:25:43.904Z,25.05
2022-11-20T03:28:12.262Z,26.05
2022-11-20T03:30:41.965Z,26.25
2022-11-20T03:33:10.349Z,25.25
2022-11-20T03:35:38.950Z,25.60
2022-11-20T03:38:07.582Z,25.98
2022-11-20T03:40:36.540Z,26.48
2022-11-20T03:43:06.278Z,25.02
2022-11-20T03:45:34.567Z,25.10
2022-11-20T03:48:04.265Z,24.90
2022-11-20T03:50:34.662Z,24.55
2022-11-20T03:53:03.115Z,25.48
2022-11-20T03:55:31.167Z,24.65
2022-11-20T03:57:59.629Z,25.48
2022-11-20T04:00:28.331Z,24.85
2022-11-20T04:03:01.850Z,25.58
2022-11-20T04:05:32.841Z,26.15
2022-11-20T04:08:01.169Z,25.27
2022-11-20T04:10:29.556Z,24.25
2022-11-20T04:12:57.905Z,27.08
2022-11-20T04:15:26.325Z,26.52
2022-11-20T04:17:55.977Z,26.38
2022-11-20T04:20:24.492Z,26.50
2022-11-20T04:22:57.173Z,27.17
2022-11-20T04:25:26.408Z,25.80
2022-11-20T04:27:54.675Z,26.02
2022-11-20T04:30:23.416Z,24.80
2022-11-20T04:32:54.278Z,24.70
2022-11-20T04:35:22.982Z,25.25
2022-11-20T04:37:53.702Z,26.67
2022-11-20T04:40:26.492Z,26.17
2022-11-20T04:42:54.728Z,25.33
2022-11-20T04:45:24.783Z,25.65
2022-11-20T04:47:54.469Z,25.85
2022-11-20T04:50:22.978Z,25.73
2022-11-20T04:52:51.209Z,25.65
2022-11-20T04:55:20.665Z,25.48
2022-11-20T04:57:52.697Z,25.05
2022-11-20T05:00:21.718Z,25.25
2022-11-20T05:02:50.052Z,25.80
2022-11-20T05:05:18.769Z,26.55
2022-11-20T05:07:47.575Z,25.30
2022-11-20T05:10:16.076Z,26.52
2022-11-20T05:12:44.546Z,25.13
2022-11-20T05:15:14.752Z,25.02
2022-11-20T05:17:43.143Z,26.02
2022-11-20T05:20:12.985Z,24.90
2022-11-20T05:22:41.608Z,26.70
2022-11-20T05:25:11.471Z,26.25
2022-11-20T05:27:40.087Z,25.15
2022-11-20T05:30:09.722Z,27.30
2022-11-20T05:32:39.583Z,25.83
2022-11-20T05:35:10.429Z,26.63
2022-11-20T05:37:38.957Z,24.90
2022-11-20T05:40:11.611Z,26.35
2022-11-20T05:42:40.268Z,24.95
2022-11-20T05:45:09.907Z,27.02
2022-11-20T05:47:39.413Z,25.75
2022-11-20T05:50:08.851Z,26.25
2022-11-20T05:52:37.319Z,24.00
2022-11-20T05:55:06.431Z,26.08
2022-11-20T05:57:35.047Z,24.05
2022-11-20T06:00:03.822Z,25.15
2022-11-20T06:02:36.594Z,25.23
2022-11-20T06:05:06.980Z,26.40
2022-11-20T06:07:35.321Z,25.67
2022-11-20T06:10:05.067Z,26.33
2022-11-20T06:12:35.211Z,25.70
2022-11-20T06:15:03.380Z,28.10
2022-11-20T06:17:31.629Z,27.08
2022-11-20T06:19:59.848Z,25.90
2022-11-20T06:22:30.192Z,25.23
2022-11-20T06:25:00.793Z,26.63
2022-11-20T06:27:29.387Z,27.00
2022-11-20T06:29:57.810Z,26.98
2022-11-20T06:32:26.245Z,27.83
2022-11-20T06:34:57.669Z,26.40
2022-11-20T06:37:25.982Z,26.45
2022-11-20T06:39:55.862Z,27.23
2022-11-20T06:42:24.481Z,27.30
2022-11-20T06:44:53.065Z,27.50
2022-11-20T06:47:21.715Z,27.38
2022-11-20T06:49:51.097Z,26.70
2022-11-20T06:52:19.889Z,27.63
2022-11-20T06:54:48.359Z,27.38
2022-11-20T06:57:19.233Z,27.02
2022-11-20T06:59:47.815Z,26.17
2022-11-20T07:02:16.330Z,27.15
2022-11-20T07:04:44.484Z,28.50
2022-11-20T07:07:13.061Z,28.35
2022-11-20T07:09:42.021Z,27.42
2022-11-20T07:12:10.673Z,28.63
2022-11-20T07:14:40.493Z,27.25
2022-11-20T07:17:09.557Z,28.27
2022-11-20T07:19:37.919Z,29.02
2022-11-20T07:22:08.093Z,28.15
2022-11-20T07:24:40.748Z,27.33
2022-11-20T07:27:13.203Z,26.75
2022-11-20T07:29:42.939Z,27.17
2022-11-20T07:32:12.515Z,27.48
2022-11-20T07:34:42.576Z,28.42
2022-11-20T07:37:11.129Z,28.48
2022-11-20T07:39:39.425Z,29.52
2022-11-20T07:42:13.254Z,28.65
2022-11-20T07:44:44.333Z,28.90
2022-11-20T07:47:16.139Z,28.17
2022-11-20T07:49:44.678Z,27.15
2022-11-20T07:52:12.969Z,27.25
2022-11-20T07:54:41.614Z,28.80
2022-11-20T07:57:10.755Z,27.23
2022-11-20T07:59:39.907Z,26.65
2022-11-20T08:02:12.568Z,25.48
2022-11-20T08:04:41.278Z,28.52
2022-11-20T08:07:09.785Z,28.90
2022-11-20T08:09:38.581Z,28.08
2022-11-20T08:12:32.606Z,27.25
2022-11-20T08:15:01.711Z,29.10
2022-11-20T08:17:34.370Z,27.40
2022-11-20T08:20:04.594Z,26.52
2022-11-20T08:22:33.146Z,27.63
2022-11-20T08:25:01.544Z,27.42
2022-11-20T08:27:30.373Z,29.52
2022-11-20T08:29:59.821Z,29.10
2022-11-20T08:32:33.101Z,27.23
2022-11-20T08:35:02.811Z,27.00
2022-11-20T08:37:31.320Z,26.15
2022-11-20T08:40:01.005Z,26.88
2022-11-20T08:42:29.434Z,27.60
2022-11-20T08:44:58.089Z,24.55
2022-11-20T08:47:33.159Z,28.35
2022-11-20T08:50:03.932Z,25.50
2022-11-20T08:52:38.464Z,26.42
2022-11-20T08:55:11.372Z,26.10
2022-11-20T08:57:40.153Z,26.42
2022-11-20T09:00:14.364Z,27.27
2022-11-20T09:02:44.705Z,25.67
2022-11-20T09:05:18.362Z,25.90
2022-11-20T09:07:50.016Z,25.10
2022-11-20T09:10:26.070Z,24.42
2022-11-20T09:12:56.676Z,25.08
2022-11-20T09:15:25.595Z,23.98
2022-11-20T09:17:54.602Z,22.95
2022-11-20T09:20:25.033Z,24.17
2022-11-20T09:22:53.450Z,22.23
2022-11-20T09:25:21.670Z,23.20
2022-11-20T09:27:50.878Z,23.27
2022-11-20T09:30:19.231Z,22.95
2022-11-20T09:32:47.605Z,24.17
2022-11-20T09:35:16.355Z,23.02
2022-11-20T09:37:46.038Z,24.08
2022-11-20T09:40:23.312Z,24.25
2022-11-20T09:42:57.312Z,23.35
2022-11-20T09:45:36.666Z,24.25
2022-11-20T09:48:20.108Z,22.92
2022-11-20T09:50:55.920Z,23.98
2022-11-20T09:53:36.403Z,23.23
2022-11-20T09:56:06.209Z,23.38
2022-11-20T09:58:38.309Z,23.80
2022-11-20T10:01:15.032Z,24.50
2022-11-20T10:03:55.091Z,26.67
2022-11-20T10:06:31.370Z,24.88
2022-11-20T10:09:10.622Z,24.85
2022-11-20T10:11:49.146Z,25.20
2022-11-20T10:14:31.639Z,23.83
2022-11-20T10:17:05.925Z,24.52
2022-11-20T10:19:48.957Z,22.85
2022-11-20T10:22:32.293Z,22.17
2022-11-20T10:25:07.990Z,24.45
2022-11-20T10:27:51.515Z,22.75
2022-11-20T10:30:23.181Z,21.45
2022-11-20T10:32:55.532Z,21.55
2022-11-20T10:35:28.999Z,22.15
2022-11-20T10:38:01.556Z,22.15
2022-11-20T10:40:38.130Z,21.38
2022-11-20T10:43:13.548Z,22.05
2022-11-20T10:46:00.567Z,20.60
2022-11-20T10:48:30.659Z,20.45
2022-11-20T10:51:11.331Z,21.95
2022-11-20T10:53:49.545Z,19.73
2022-11-20T10:56:24.890Z,21.73
2022-11-20T10:59:07.848Z,20.63
2022-11-20T11:01:42.635Z,20.60
2022-11-20T11:04:24.802Z,21.92
2022-11-20T11:09:29.592Z,21.85
2022-11-20T11:12:04.228Z,21.33
2022-11-20T11:14:44.594Z,21.48
2022-11-20T11:17:24.510Z,22.33
2022-11-20T11:20:09.872Z,22.00
2022-11-20T11:22:49.135Z,21.30
2022-11-20T11:25:27.086Z,21.73
2022-11-20T11:28:00.163Z,20.98
2022-11-20T11:30:31.301Z,21.45
2022-11-20T11:33:09.570Z,21.00
2022-11-20T11:35:51.086Z,21.48
2022-11-20T11:40:56.545Z,21.80
2022-11-20T11:43:46.020Z,22.08
2022-11-20T11:46:31.765Z,21.58
2022-11-20T11:49:02.319Z,21.30
2022-11-20T11:51:37.052Z,21.15
2022-11-20T11:54:16.492Z,20.92
2022-11-20T11:56:45.858Z,20.88
2022-11-20T11:59:24.671Z,21.90
2022-11-20T12:01:59.324Z,20.73
2022-11-20T12:04:45.927Z,21.48
2022-11-20T12:07:45.626Z,22.60
2022-11-20T12:10:19.121Z,21.90
2022-11-20T12:12:52.442Z,23.38
2022-11-20T12:15:30.671Z,23.20
2022-11-20T12:17:59.833Z,22.67
2022-11-20T12:20:36.960Z,21.95
2022-11-20T12:23:18.241Z,22.42
2022-11-20T12:25:53.542Z,24.52
2022-11-20T12:28:44.295Z,23.08
2022-11-20T12:31:35.549Z,21.58
2022-11-20T12:34:21.282Z,22.67
2022-11-20T12:36:58.058Z,22.80
2022-11-20T12:39:43.506Z,22.95
2022-11-20T12:42:51.628Z,23.38
2022-11-20T12:45:40.518Z,22.65
2022-11-20T12:48:33.292Z,23.05
2022-11-20T12:51:21.491Z,23.73
2022-11-20T12:54:04.465Z,22.75
2022-11-20T12:56:43.076Z,23.23
2022-11-20T12:59:31.064Z,22.17
2022-11-20T13:02:16.200Z,21.33
2022-11-20T13:05:03.535Z,22.42
2022-11-20T13:07:33.242Z,22.02
2022-11-20T13:10:02.853Z,22.98
2022-11-20T13:12:36.240Z,23.17
2022-11-20T13:15:13.780Z,22.50
2022-11-20T13:17:53.525Z,22.65
2022-11-20T13:20:24.191Z,25.02
2022-11-20T13:22:58.446Z,26.00
2022-11-20T13:25:29.254Z,24.52
2022-11-20T13:27:59.297Z,25.73
2022-11-20T13:30:30.167Z,24.92
2022-11-20T13:33:02.225Z,26.95
2022-11-20T13:38:05.626Z,24.65
2022-11-20T13:40:36.575Z,23.73
2022-11-20T13:43:17.240Z,25.23
2022-11-20T13:45:58.060Z,23.67
2022-11-20T13:48:30.674Z,24.15
2022-11-20T13:51:12.520Z,25.05
2022-11-20T13:53:59.513Z,25.77
2022-11-20T13:56:38.569Z,25.40
2022-11-20T13:59:15.167Z,25.63
2022-11-20T14:01:47.909Z,25.70
2022-11-20T14:04:20.701Z,26.05
2022-11-20T14:06:54.861Z,25.17
2022-11-20T14:09:33.794Z,24.00
2022-11-20T14:12:05.125Z,25.42
2022-11-20T14:14:38.497Z,24.80
2022-11-20T14:17:18.881Z,24.90
2022-11-20T14:19:49.767Z,24.83
2022-11-20T14:22:26.343Z,24.52
2022-11-20T14:25:07.079Z,25.52
2022-11-20T14:27:38.668Z,24.65
2022-11-20T14:30:16.923Z,25.50
2022-11-20T14:32:50.061Z,25.85
2022-11-20T14:35:28.659Z,25.60
2022-11-20T14:38:00.006Z,26.30
2022-11-20T14:40:32.822Z,27.08
2022-11-20T14:43:02.828Z,27.35
2022-11-20T14:45:32.498Z,27.08
2022-11-20T14:48:02.098Z,30.00
2022-11-20T14:50:31.622Z,31.83
2022-11-20T14:53:02.593Z,33.53
2022-11-20T14:55:36.681Z,28.77
2022-11-20T14:58:06.175Z,28.55
2022-11-20T15:00:38.312Z,31.17
2022-11-20T15:05:50.647Z,32.30
2022-11-20T15:08:20.744Z,34.65
2022-11-20T15:10:52.287Z,33.75
2022-11-20T15:13:29.514Z,34.67
2022-11-20T15:15:59.340Z,32.50
2022-11-20T15:18:31.035Z,33.65
2022-11-20T15:21:05.400Z,33.75
2022-11-20T15:23:35.415Z,33.28
2022-11-20T15:26:06.739Z,35.83
2022-11-20T15:28:38.754Z,33.42
2022-11-20T15:31:09.560Z,34.15
2022-11-20T15:33:37.987Z,33.58
2022-11-20T15:36:07.651Z,32.50
2022-11-20T15:38:37.986Z,33.03
2022-11-20T15:41:06.944Z,33.40
2022-11-20T15:43:35.564Z,33.78
2022-11-20T15:46:13.782Z,34.33
2022-11-20T15:48:47.911Z,32.45
2022-11-20T15:51:26.986Z,33.30
2022-11-20T15:53:57.818Z,32.90
2022-11-20T15:56:26.954Z,47.63
2022-11-20T15:58:56.860Z,51.10
2022-11-20T16:01:25.496Z,45.47
2022-11-20T16:03:54.248Z,44.50
2022-11-20T16:06:22.636Z,48.53
2022-11-20T16:08:50.877Z,46.50
2022-11-20T16:11:21.052Z,37.88
2022-11-20T16:14:08.816Z,38.17
2022-11-20T16:16:39.606Z,38.45
2022-11-20T16:19:07.637Z,40.15
2022-11-20T16:21:38.631Z,42.88
2022-11-20T16:24:09.288Z,42.97
2022-11-20T16:26:43.329Z,42.17
2022-11-20T16:29:13.351Z,45.30
2022-11-20T16:31:42.236Z,52.60
2022-11-20T16:34:12.513Z,53.05
2022-11-20T16:36:43.343Z,55.72
2022-11-20T16:39:12.031Z,56.47
2022-11-20T16:41:42.170Z,54.92
2022-11-20T16:44:12.457Z,52.33
2022-11-20T16:46:41.523Z,48.60
2022-11-20T16:49:14.045Z,46.50
2022-11-20T16:51:42.984Z,47.15
2022-11-20T16:54:16.444Z,49.22
2022-11-20T16:56:51.800Z,52.65
2022-11-20T16:59:21.584Z,54.13
2022-11-20T17:01:50.260Z,54.03
2022-11-20T17:04:19.220Z,57.75
2022-11-20T17:06:48.241Z,63.92
2022-11-20T17:09:19.265Z,77.30
2022-11-20T17:11:47.610Z,89.80
2022-11-20T17:14:18.858Z,78.00
2022-11-20T17:16:46.919Z,76.97
2022-11-20T17:19:16.636Z,86.32
2022-11-20T17:21:45.034Z,83.85
2022-11-20T17:24:16.126Z,77.63
2022-11-20T17:26:46.018Z,75.93
2022-11-20T17:29:15.698Z,72.35
2022-11-20T17:31:46.496Z,60.47
2022-11-20T17:34:17.240Z,57.50
2022-11-20T17:36:46.766Z,57.28
2022-11-20T17:39:15.748Z,52.97
2022-11-20T17:41:44.511Z,55.05
2022-11-20T17:44:14.384Z,60.47
2022-11-20T17:46:42.992Z,61.97
2022-11-20T17:49:13.100Z,65.18
2022-11-20T17:51:42.381Z,67.25
2022-11-20T17:54:12.542Z,73.70
2022-11-20T17:56:58.490Z,66.80
2022-11-20T17:59:26.813Z,64.13
2022-11-20T18:01:57.633Z,61.83
2022-11-20T18:04:31.016Z,73.00
2022-11-20T18:06:59.666Z,79.57
2022-11-20T18:09:28.246Z,79.40
2022-11-20T18:11:57.101Z,87.15
2022-11-20T18:14:32.125Z,92.50
2022-11-20T18:17:02.844Z,99.70
2022-11-20T18:19:37.601Z,131.27
2022-11-20T18:22:09.545Z,120.78
2022-11-20T18:24:41.002Z,121.50
2022-11-20T18:29:43.567Z,100.65
2022-11-20T18:32:12.517Z,120.10
2022-11-20T18:34:43.379Z,130.40
2022-11-20T18:37:14.768Z,131.20
2022-11-20T18:39:43.788Z,130.60
2022-11-20T18:42:32.141Z,121.47
2022-11-20T18:45:01.463Z,119.45
2022-11-20T18:47:32.154Z,106.43
2022-11-20T18:50:06.767Z,109.95
2022-11-20T18:52:40.048Z,109.50
2022-11-20T18:55:10.573Z,111.32
2022-11-20T18:57:38.772Z,101.45
2022-11-20T19:00:09.861Z,93.50
2022-11-20T19:02:42.103Z,93.63
2022-11-20T19:05:12.320Z,88.13
2022-11-20T19:07:41.121Z,92.00
2022-11-20T19:10:10.033Z,88.60
2022-11-20T19:12:39.075Z,87.18
2022-11-20T19:15:08.525Z,88.50
2022-11-20T19:17:37.883Z,92.40
2022-11-20T19:20:07.524Z,99.22
2022-11-20T19:22:37.838Z,103.00
2022-11-20T19:25:07.227Z,112.63
2022-11-20T19:27:35.625Z,109.82
2022-11-20T19:30:04.533Z,111.30
2022-11-20T19:32:35.272Z,114.95
2022-11-20T19:35:04.792Z,105.72
2022-11-20T19:37:34.509Z,96.47
2022-11-20T19:40:07.024Z,106.85
2022-11-20T19:42:35.788Z,119.03
2022-11-20T19:45:05.925Z,116.60
2022-11-20T19:48:01.084Z,108.07
2022-11-20T19:50:23.135Z,119.20
2022-11-20T19:52:58.478Z,117.22
2022-11-20T19:55:29.725Z,112.78
2022-11-20T19:58:01.075Z,111.53
2022-11-20T20:00:33.094Z,109.80
2022-11-20T20:03:05.134Z,107.82
2022-11-20T20:05:36.952Z,106.22
2022-11-20T20:08:06.585Z,106.18
2022-11-20T20:10:36.819Z,121.63
2022-11-20T20:13:06.830Z,118.03
2022-11-20T20:15:35.199Z,133.18
2022-11-20T20:18:03.274Z,131.43
2022-11-20T20:20:32.839Z,124.05
2022-11-20T20:23:02.825Z,126.13
2022-11-20T20:25:32.268Z,114.60
2022-11-20T20:28:02.294Z,117.90
2022-11-20T20:30:31.315Z,118.53
2022-11-20T20:33:01.829Z,124.70
2022-11-20T20:35:30.965Z,126.68
2022-11-20T20:38:00.418Z,130.77
2022-11-20T20:40:28.529Z,134.05
2022-11-20T20:42:59.418Z,121.00
2022-11-20T20:45:29.663Z,118.55
2022-11-20T20:48:00.117Z,116.90
2022-11-20T20:50:30.206Z,114.90
2022-11-20T20:53:03.548Z,113.18
2022-11-20T20:55:33.955Z,112.30
2022-11-20T20:58:02.904Z,105.82
2022-11-20T21:00:32.705Z,101.43
2022-11-20T21:03:04.239Z,101.28
2022-11-20T21:05:32.561Z,101.05
2022-11-20T21:08:28.728Z,100.13
2022-11-20T21:11:03.819Z,96.82
2022-11-20T21:13:34.120Z,99.20
2022-11-20T21:16:07.970Z,98.35
2022-11-20T21:18:36.695Z,101.57
2022-11-20T21:21:24.142Z,104.40
2022-11-20T21:23:57.494Z,99.72
2022-11-20T21:26:26.784Z,106.20
2022-11-20T21:28:54.957Z,105.88
